Time;durP1;ratioP1;P1;durP2;ratioP2;P2;SDS_P1;SDS_P2;PMS_P1;PMS_P2;Temp;Humidity;BMP_temperature;BMP_pressure;BME280_temperature;BME280_humidity;BME280_pressure;Samples;Min_cycle;Max_cycle;Signal;HPM_P1;HPM_P2
2022/06/30 00:01:35;;;;;;;3.30;1.30;;;21.40;77.30;;;;;;5049989;28;20387;-77
2022/06/30 00:04:01;;;;;;;2.90;1.52;;;21.30;76.90;;;;;;5051483;28;20443;-77
2022/06/30 00:06:27;;;;;;;2.75;1.83;;;21.30;77.20;;;;;;5051613;28;20110;-77
2022/06/30 00:08:53;;;;;;;6.72;1.55;;;21.30;77.20;;;;;;5051405;28;20083;-76
2022/06/30 00:11:20;;;;;;;2.67;1.52;;;21.30;77.30;;;;;;5049966;28;20036;-77
2022/06/30 00:13:47;;;;;;;4.03;1.20;;;21.30;77.10;;;;;;5050788;28;20482;-75
2022/06/30 00:16:12;;;;;;;5.57;1.40;;;21.30;77.20;;;;;;5050002;28;20452;-74
2022/06/30 00:18:38;;;;;;;6.13;1.42;;;21.20;77.30;;;;;;5050272;28;20074;-76
2022/06/30 00:21:07;;;;;;;2.92;1.75;;;21.20;77.20;;;;;;5050833;28;20470;-76
2022/06/30 00:23:33;;;;;;;3.50;1.77;;;21.20;77.40;;;;;;5050934;28;20104;-77
2022/06/30 00:25:59;;;;;;;4.00;1.25;;;21.10;77.70;;;;;;5049569;28;20128;-75
2022/06/30 00:28:25;;;;;;;2.65;1.30;;;21.10;78.90;;;;;;5050546;28;20049;-76
2022/06/30 00:30:52;;;;;;;3.15;1.50;;;21.00;79.20;;;;;;5051079;28;20125;-76
2022/06/30 00:33:18;;;;;;;2.23;1.50;;;21.00;79.00;;;;;;5050622;28;20398;-76
2022/06/30 00:35:45;;;;;;;3.38;1.63;;;21.00;78.20;;;;;;5050478;28;20063;-75
2022/06/30 00:38:12;;;;;;;1.55;1.33;;;20.90;78.90;;;;;;5050513;28;20048;-75
2022/06/30 00:40:39;;;;;;;3.60;1.52;;;20.90;79.20;;;;;;5050257;28;20033;-74
2022/06/30 00:43:05;;;;;;;5.50;1.57;;;20.80;79.50;;;;;;5050281;28;20090;-75
2022/06/30 00:45:31;;;;;;;3.75;1.85;;;20.80;79.30;;;;;;5050655;28;20025;-75
2022/06/30 00:47:58;;;;;;;2.30;1.30;;;20.80;79.60;;;;;;5049136;28;20552;-75
2022/06/30 00:50:25;;;;;;;1.97;1.40;;;20.80;80.20;;;;;;5050485;28;20052;-75
2022/06/30 00:52:52;;;;;;;3.20;1.70;;;20.70;80.00;;;;;;5050148;28;20419;-75
2022/06/30 00:55:18;;;;;;;3.15;1.48;;;20.70;80.20;;;;;;5050335;28;20060;-76
2022/06/30 00:57:45;;;;;;;3.25;1.40;;;20.60;80.50;;;;;;5050177;28;20086;-76
2022/06/30 01:00:14;;;;;;;1.77;1.17;;;20.60;80.80;;;;;;5050144;28;20035;-75
2022/06/30 01:02:40;;;;;;;4.35;1.98;;;20.50;80.90;;;;;;5050219;28;20417;-75
2022/06/30 01:05:07;;;;;;;1.80;1.40;;;20.50;81.00;;;;;;5050061;28;20032;-75
2022/06/30 01:07:33;;;;;;;4.72;1.60;;;20.40;81.40;;;;;;5050051;28;20043;-73
2022/06/30 01:12:46;;;;;;;4.00;1.27;;;20.30;81.50;;;;;;5050277;28;20087;-75
2022/06/30 01:15:13;;;;;;;2.25;1.67;;;20.30;81.70;;;;;;5049618;28;20056;-75
2022/06/30 01:17:39;;;;;;;1.97;1.53;;;20.20;81.70;;;;;;5050055;28;20029;-75
2022/06/30 01:20:05;;;;;;;4.13;2.28;;;20.20;82.30;;;;;;5050142;28;20337;-74
2022/06/30 01:22:31;;;;;;;4.32;1.70;;;20.10;82.20;;;;;;5048666;28;20060;-75
2022/06/30 01:24:57;;;;;;;3.95;1.55;;;20.10;82.90;;;;;;5050455;28;20346;-76
2022/06/30 01:27:22;;;;;;;3.20;1.48;;;20.00;83.00;;;;;;5049861;28;20459;-75
2022/06/30 01:29:50;;;;;;;2.90;1.42;;;20.00;82.70;;;;;;5048601;28;20041;-76
2022/06/30 01:32:16;;;;;;;3.47;1.83;;;20.00;83.10;;;;;;5048326;28;20124;-76
2022/06/30 01:34:42;;;;;;;4.82;1.83;;;20.00;83.30;;;;;;5049432;28;20037;-74
2022/06/30 01:37:08;;;;;;;3.70;1.52;;;19.90;83.30;;;;;;5069139;28;20085;-76
2022/06/30 01:39:34;;;;;;;3.50;1.50;;;19.90;83.50;;;;;;5069130;28;20119;-75
2022/06/30 01:42:00;;;;;;;3.78;2.05;;;19.90;83.70;;;;;;5069952;28;20111;-75
2022/06/30 01:44:26;;;;;;;1.77;1.30;;;19.90;83.50;;;;;;5069896;28;20051;-75
2022/06/30 01:46:52;;;;;;;6.97;1.98;;;19.90;83.30;;;;;;5069620;28;20032;-75
2022/06/30 01:49:18;;;;;;;2.70;1.63;;;20.00;83.20;;;;;;5069760;28;20454;-76
2022/06/30 01:51:44;;;;;;;14.55;2.10;;;20.00;83.40;;;;;;5069961;28;20029;-76
2022/06/30 01:54:10;;;;;;;3.70;1.42;;;20.00;83.50;;;;;;5069573;28;20078;-75
2022/06/30 01:56:36;;;;;;;3.47;1.83;;;20.00;83.70;;;;;;5069867;28;20025;-74
2022/06/30 01:59:02;;;;;;;2.47;1.70;;;19.90;83.70;;;;;;5068430;28;20125;-75
2022/06/30 02:01:28;;;;;;;2.53;1.98;;;19.90;83.70;;;;;;5068234;28;20033;-74
2022/06/30 02:03:54;;;;;;;1.73;1.35;;;19.80;84.20;;;;;;5069960;28;20067;-76
2022/06/30 02:06:19;;;;;;;2.35;1.63;;;19.80;84.60;;;;;;5069744;28;20114;-76
2022/06/30 02:08:45;;;;;;;2.00;1.45;;;19.80;84.70;;;;;;5072079;28;20047;-75
2022/06/30 02:11:11;;;;;;;2.90;1.70;;;19.80;84.80;;;;;;5073429;28;20496;-76
2022/06/30 02:13:36;;;;;;;4.25;1.88;;;19.70;85.00;;;;;;5073096;28;20039;-76
2022/06/30 02:16:04;;;;;;;5.20;2.00;;;19.70;84.80;;;;;;5073633;28;20037;-74
2022/06/30 02:18:30;;;;;;;2.88;1.73;;;19.70;85.00;;;;;;5073663;28;20037;-75
2022/06/30 02:21:16;;;;;;;2.97;1.70;;;19.70;84.30;;;;;;5071998;28;20028;-75
2022/06/30 02:23:42;;;;;;;2.83;1.60;;;19.80;84.50;;;;;;5071799;28;20104;-74
2022/06/30 02:26:07;;;;;;;3.28;1.83;;;19.80;84.20;;;;;;5071725;28;20039;-74
2022/06/30 02:28:33;;;;;;;10.40;2.45;;;19.80;84.00;;;;;;5072853;28;20102;-74
2022/06/30 02:30:58;;;;;;;2.92;1.73;;;19.80;84.20;;;;;;5072076;28;20021;-73
2022/06/30 02:33:24;;;;;;;4.40;1.65;;;19.80;84.10;;;;;;5071711;28;20082;-75
2022/06/30 02:35:50;;;;;;;2.13;1.85;;;19.80;84.20;;;;;;5072551;28;20040;-75
2022/06/30 02:38:15;;;;;;;3.15;2.17;;;19.70;84.40;;;;;;5072788;28;20029;-75
2022/06/30 02:40:41;;;;;;;5.88;2.05;;;19.70;84.80;;;;;;5072904;28;20105;-76
2022/06/30 02:43:07;;;;;;;2.80;1.90;;;19.70;84.60;;;;;;5072807;28;20101;-75
2022/06/30 02:45:32;;;;;;;2.00;1.70;;;19.70;85.00;;;;;;5072967;28;20017;-75
2022/06/30 02:47:59;;;;;;;4.95;1.80;;;19.70;85.00;;;;;;5072718;28;20463;-75
2022/06/30 02:50:25;;;;;;;4.60;2.42;;;19.70;85.60;;;;;;5072937;28;20219;-75
2022/06/30 02:52:50;;;;;;;3.85;1.60;;;19.60;84.80;;;;;;5072399;28;20149;-76
2022/06/30 02:55:16;;;;;;;2.90;1.77;;;19.60;85.50;;;;;;5071459;28;20032;-76
2022/06/30 02:57:42;;;;;;;2.83;1.70;;;19.50;85.40;;;;;;5073149;28;20029;-76
2022/06/30 03:00:10;;;;;;;3.53;2.15;;;19.50;85.60;;;;;;5072685;28;20028;-76
2022/06/30 03:02:37;;;;;;;3.28;1.90;;;19.50;85.50;;;;;;5072446;28;20028;-76
2022/06/30 03:05:03;;;;;;;2.65;2.13;;;19.50;86.20;;;;;;5071349;28;20048;-76
2022/06/30 03:07:29;;;;;;;4.25;1.83;;;19.40;86.20;;;;;;5072266;28;20075;-76
2022/06/30 03:10:02;;;;;;;4.85;1.90;;;19.40;86.30;;;;;;5073364;28;20110;-76
2022/06/30 03:12:28;;;;;;;2.38;1.70;;;19.30;86.90;;;;;;5070607;28;20029;-75
2022/06/30 03:14:54;;;;;;;2.45;1.83;;;19.30;86.40;;;;;;5071899;28;20043;-74
2022/06/30 03:17:20;;;;;;;5.65;1.92;;;19.30;87.40;;;;;;5070949;28;20036;-77
2022/06/30 03:19:46;;;;;;;2.70;1.65;;;19.20;87.50;;;;;;5070425;28;20028;-75
2022/06/30 03:22:12;;;;;;;3.88;1.75;;;19.20;87.30;;;;;;5072240;28;20354;-76
2022/06/30 03:24:37;;;;;;;3.45;1.42;;;19.20;87.70;;;;;;5072730;28;20028;-75
2022/06/30 03:27:04;;;;;;;4.38;2.10;;;19.10;88.00;;;;;;5072151;28;20025;-75
2022/06/30 03:29:30;;;;;;;3.90;1.55;;;19.10;88.00;;;;;;5071796;28;20105;-76
2022/06/30 03:31:56;;;;;;;4.22;1.80;;;19.10;88.20;;;;;;5071720;28;20450;-76
2022/06/30 03:34:21;;;;;;;3.67;1.92;;;19.10;88.40;;;;;;5071851;28;20082;-75
2022/06/30 03:36:49;;;;;;;6.35;2.55;;;19.00;88.10;;;;;;5072331;28;20017;-75
2022/06/30 03:39:14;;;;;;;6.72;2.65;;;19.10;88.60;;;;;;5070707;28;20071;-76
2022/06/30 03:41:40;;;;;;;4.75;1.80;;;19.20;88.00;;;;;;5070576;28;20052;-76
2022/06/30 03:44:06;;;;;;;9.85;1.98;;;19.20;88.10;;;;;;5071703;28;20086;-76
2022/06/30 03:46:32;;;;;;;3.83;2.42;;;19.20;88.60;;;;;;5071431;28;20135;-76
2022/06/30 03:48:58;;;;;;;6.47;2.15;;;19.10;88.00;;;;;;5072153;28;20025;-76
2022/06/30 03:51:23;;;;;;;5.15;2.30;;;19.10;88.30;;;;;;5070473;28;20198;-75
2022/06/30 03:53:49;;;;;;;4.15;2.20;;;19.00;89.40;;;;;;5071216;28;20139;-74
2022/06/30 03:56:15;;;;;;;5.60;2.25;;;19.00;89.60;;;;;;5070463;28;20028;-76
2022/06/30 03:58:40;;;;;;;6.32;2.40;;;18.90;89.60;;;;;;5071577;28;20086;-75
2022/06/30 04:01:06;;;;;;;2.78;2.10;;;19.10;89.50;;;;;;5071142;28;20450;-75
2022/06/30 04:03:32;;;;;;;4.55;2.30;;;19.10;89.50;;;;;;5071851;28;20032;-74
2022/06/30 04:05:57;;;;;;;4.97;2.05;;;19.10;89.00;;;;;;5070027;28;20067;-75
2022/06/30 04:08:23;;;;;;;4.55;1.95;;;19.00;89.60;;;;;;5071141;28;20225;-76
2022/06/30 04:10:49;;;;;;;2.25;1.80;;;19.00;90.00;;;;;;5071259;28;20119;-76
2022/06/30 04:13:15;;;;;;;4.35;2.15;;;19.00;90.00;;;;;;5069905;28;20028;-77
2022/06/30 04:15:40;;;;;;;3.88;2.10;;;19.00;90.00;;;;;;5070451;28;20028;-76
2022/06/30 04:18:06;;;;;;;6.03;2.72;;;19.00;90.10;;;;;;5071275;28;20032;-76
2022/06/30 04:20:32;;;;;;;3.58;2.00;;;19.00;90.10;;;;;;5069973;28;20089;-75
2022/06/30 04:22:58;;;;;;;2.45;1.73;;;19.10;89.80;;;;;;5070805;28;20205;-75
2022/06/30 04:25:23;;;;;;;9.30;2.60;;;19.20;89.50;;;;;;5070765;28;20029;-75
2022/06/30 04:27:52;;;;;;;6.25;2.33;;;19.20;89.70;;;;;;5071466;28;20159;-74
2022/06/30 04:33:13;;;;;;;5.05;2.38;;;19.20;90.50;;;;;;5015423;28;20064;-76
2022/06/30 04:35:39;;;;;;;4.47;1.98;;;19.20;90.10;;;;;;5069555;28;20071;-75
2022/06/30 04:38:05;;;;;;;5.13;2.40;;;19.30;90.10;;;;;;5069321;28;20512;-75
2022/06/30 04:43:15;;;;;;;10.00;2.58;;;19.40;89.90;;;;;;5070590;28;20089;-76
2022/06/30 04:45:41;;;;;;;8.07;2.72;;;19.30;90.20;;;;;;5069517;28;20024;-77
2022/06/30 04:48:07;;;;;;;6.18;2.33;;;19.40;90.30;;;;;;5070429;28;20044;-76
2022/06/30 04:50:33;;;;;;;7.85;2.28;;;19.50;90.20;;;;;;5070525;28;20036;-75
2022/06/30 04:52:59;;;;;;;7.13;2.80;;;19.60;90.20;;;;;;5070111;28;20045;-75
2022/06/30 04:55:24;;;;;;;13.93;3.08;;;19.60;90.20;;;;;;5070025;28;20043;-76
2022/06/30 04:57:50;;;;;;;6.60;2.60;;;19.60;90.10;;;;;;5070429;28;20465;-71
2022/06/30 05:00:16;;;;;;;14.75;2.90;;;19.70;90.40;;;;;;5069921;28;20535;-70
2022/06/30 05:02:41;;;;;;;14.40;2.65;;;19.80;90.80;;;;;;5070078;28;20182;-71
2022/06/30 05:05:08;;;;;;;8.30;3.17;;;19.80;90.90;;;;;;5069978;28;20037;-71
2022/06/30 05:07:34;;;;;;;12.35;3.45;;;19.80;90.80;;;;;;5068696;28;20036;-70
2022/06/30 05:09:59;;;;;;;26.02;11.60;;;19.90;90.70;;;;;;5070528;28;20032;-71
2022/06/30 05:12:25;;;;;;;8.60;3.38;;;20.00;90.60;;;;;;5069863;28;20052;-72
2022/06/30 05:14:51;;;;;;;8.13;3.00;;;19.90;90.40;;;;;;5070001;28;20032;-72
2022/06/30 05:17:16;;;;;;;9.38;3.05;;;19.90;90.30;;;;;;5051275;28;20386;-70
2022/06/30 05:19:42;;;;;;;10.07;2.83;;;19.90;90.40;;;;;;5050096;28;20524;-70
2022/06/30 05:22:07;;;;;;;8.68;3.00;;;19.90;90.30;;;;;;5050087;28;20485;-71
2022/06/30 05:27:18;;;;;;;10.13;3.17;;;19.90;90.50;;;;;;5049846;28;20114;-72
2022/06/30 05:29:44;;;;;;;15.55;3.08;;;20.00;90.60;;;;;;5049808;28;20609;-69
2022/06/30 05:32:09;;;;;;;9.57;3.15;;;20.00;90.70;;;;;;5048569;28;20033;-70
2022/06/30 05:34:35;;;;;;;18.38;3.42;;;20.00;90.50;;;;;;5049738;28;20032;-70
2022/06/30 05:37:02;;;;;;;21.08;5.05;;;19.90;90.80;;;;;;5049183;28;20032;-71
2022/06/30 05:39:28;;;;;;;30.17;5.03;;;19.90;90.90;;;;;;5050551;28;20064;-71
2022/06/30 05:41:56;;;;;;;16.88;4.45;;;19.90;91.30;;;;;;5049790;28;20483;-74
2022/06/30 05:44:22;;;;;;;15.48;3.95;;;20.00;91.00;;;;;;5051978;28;20078;-70
2022/06/30 05:46:47;;;;;;;28.98;5.32;;;20.00;91.00;;;;;;5053290;28;20364;-73
2022/06/30 05:49:13;;;;;;;9.90;3.97;;;20.10;91.10;;;;;;5052091;28;20446;-70
2022/06/30 05:51:39;;;;;;;13.20;3.85;;;20.10;91.20;;;;;;5054026;28;20409;-70
2022/06/30 05:54:04;;;;;;;10.82;4.18;;;20.30;91.20;;;;;;5053214;28;20052;-72
2022/06/30 05:56:30;;;;;;;8.75;3.28;;;20.40;91.10;;;;;;5053477;28;20124;-71
2022/06/30 05:58:56;;;;;;;22.77;11.48;;;20.40;91.10;;;;;;5053197;28;20108;-70
2022/06/30 06:01:21;;;;;;;10.90;4.13;;;20.50;91.00;;;;;;5052254;28;20039;-71
2022/06/30 06:03:48;;;;;;;6.75;5.45;;;20.60;91.20;;;;;;5052215;28;20021;-71
2022/06/30 06:06:13;;;;;;;14.23;3.78;;;20.60;91.20;;;;;;5051682;28;20040;-70
2022/06/30 06:08:40;;;;;;;5.07;3.10;;;20.80;91.20;;;;;;5052074;28;20383;-71
2022/06/30 06:11:06;;;;;;;6.43;3.72;;;20.80;91.20;;;;;;5052832;28;20041;-70
2022/06/30 06:13:32;;;;;;;8.38;3.60;;;20.90;91.20;;;;;;5052963;28;20090;-70
2022/06/30 06:15:57;;;;;;;8.38;3.30;;;20.90;91.30;;;;;;5053255;28;20417;-71
2022/06/30 06:18:23;;;;;;;9.18;3.92;;;21.00;91.30;;;;;;5052969;28;20057;-71
2022/06/30 06:20:49;;;;;;;7.07;3.42;;;21.10;91.50;;;;;;5052486;28;20378;-71
2022/06/30 06:23:14;;;;;;;11.45;4.40;;;21.10;91.60;;;;;;5052720;28;20041;-71
2022/06/30 06:25:40;;;;;;;19.48;5.00;;;21.20;91.70;;;;;;5052323;28;20025;-72
2022/06/30 06:30:50;;;;;;;8.73;4.22;;;21.40;91.80;;;;;;5053186;28;20032;-71
2022/06/30 06:33:16;;;;;;;6.80;3.78;;;21.50;92.00;;;;;;5052395;28;20033;-70
2022/06/30 06:35:41;;;;;;;9.68;4.10;;;21.70;91.70;;;;;;5051199;28;20143;-70
2022/06/30 06:38:07;;;;;;;6.47;3.88;;;21.80;91.70;;;;;;5054374;28;20115;-71
2022/06/30 06:40:32;;;;;;;9.77;4.18;;;21.80;91.60;;;;;;5052001;28;20033;-70
2022/06/30 06:42:58;;;;;;;7.18;3.97;;;21.90;91.60;;;;;;5051430;28;20556;-71
2022/06/30 06:45:24;;;;;;;7.13;4.25;;;22.10;91.60;;;;;;5051896;28;20196;-71
2022/06/30 06:47:50;;;;;;;5.78;4.45;;;22.10;91.50;;;;;;5052060;28;20043;-71
2022/06/30 06:50:15;;;;;;;7.78;4.45;;;22.30;91.40;;;;;;5051943;28;20407;-72
2022/06/30 06:52:41;;;;;;;8.82;4.50;;;22.30;91.40;;;;;;5049948;28;20045;-71
2022/06/30 06:55:07;;;;;;;8.52;3.95;;;22.40;91.20;;;;;;5050997;28;20025;-71
2022/06/30 06:57:38;;;;;;;5.47;3.97;;;22.40;91.00;;;;;;5052483;28;20095;-71
2022/06/30 07:00:06;;;;;;;5.95;4.60;;;22.40;91.10;;;;;;5052003;28;20048;-71
2022/06/30 07:02:32;;;;;;;10.40;7.13;;;22.40;91.10;;;;;;5052013;28;20033;-70
2022/06/30 07:04:57;;;;;;;10.88;4.68;;;22.50;91.20;;;;;;5052031;28;20029;-70
2022/06/30 07:07:23;;;;;;;6.93;4.10;;;22.60;91.20;;;;;;5051813;28;20459;-71
2022/06/30 07:09:49;;;;;;;9.20;4.78;;;22.70;91.10;;;;;;5051011;28;20025;-72
2022/06/30 07:12:14;;;;;;;5.65;4.28;;;22.80;91.10;;;;;;5051718;28;20041;-70
2022/06/30 07:14:40;;;;;;;4.55;3.45;;;23.10;90.90;;;;;;5051625;28;20025;-70
2022/06/30 07:17:06;;;;;;;6.82;4.43;;;23.30;91.10;;;;;;5051494;28;20398;-71
2022/06/30 07:19:32;;;;;;;7.95;4.22;;;23.70;90.60;;;;;;5051913;28;20072;-70
2022/06/30 07:21:57;;;;;;;6.82;4.78;;;23.90;90.00;;;;;;5051990;28;20032;-71
2022/06/30 07:24:23;;;;;;;5.65;3.85;;;24.00;89.40;;;;;;5050249;28;20043;-70
2022/06/30 07:26:49;;;;;;;6.60;3.90;;;24.20;89.50;;;;;;5050317;28;20033;-70
2022/06/30 07:29:15;;;;;;;6.40;4.47;;;24.20;89.30;;;;;;5051466;28;20096;-71
2022/06/30 07:31:40;;;;;;;6.35;4.53;;;24.10;89.40;;;;;;5051337;28;20501;-71
2022/06/30 07:34:06;;;;;;;5.68;4.45;;;24.20;89.50;;;;;;5051322;28;20120;-70
2022/06/30 07:36:31;;;;;;;7.57;5.03;;;24.20;89.30;;;;;;5051800;28;20029;-70
2022/06/30 07:38:57;;;;;;;9.27;5.05;;;24.20;89.50;;;;;;5051226;28;20029;-70
2022/06/30 07:41:24;;;;;;;10.63;4.85;;;24.20;89.80;;;;;;5051163;28;20112;-70
2022/06/30 07:43:50;;;;;;;16.03;7.67;;;24.30;89.70;;;;;;5050136;28;20032;-71
2022/06/30 07:46:17;;;;;;;6.60;4.70;;;24.40;89.90;;;;;;5051017;28;20320;-71
2022/06/30 07:48:43;;;;;;;7.53;5.28;;;24.40;89.70;;;;;;5050414;28;20112;-71
2022/06/30 07:51:09;;;;;;;16.52;6.25;;;24.60;89.20;;;;;;5049988;28;20689;-71
2022/06/30 07:53:34;;;;;;;15.00;5.82;;;24.60;89.30;;;;;;5050856;28;20087;-70
2022/06/30 07:56:00;;;;;;;11.82;6.20;;;24.80;88.90;;;;;;5050796;28;20049;-70
2022/06/30 07:58:26;;;;;;;9.68;6.13;;;24.90;88.90;;;;;;5051029;28;20090;-71
2022/06/30 08:00:52;;;;;;;12.10;5.43;;;25.10;88.60;;;;;;5051268;28;20033;-71
2022/06/30 08:03:18;;;;;;;8.98;5.38;;;25.10;88.20;;;;;;5050605;28;20036;-71
2022/06/30 08:05:43;;;;;;;11.38;5.78;;;25.20;88.10;;;;;;5049742;28;20057;-71
2022/06/30 08:08:09;;;;;;;7.95;5.45;;;25.50;88.20;;;;;;5050729;28;20044;-72
2022/06/30 08:10:35;;;;;;;8.30;5.57;;;25.60;87.50;;;;;;5050551;28;20176;-71
2022/06/30 08:13:00;;;;;;;13.30;6.50;;;25.70;87.30;;;;;;5049937;28;20110;-72
2022/06/30 08:15:26;;;;;;;8.77;5.35;;;26.10;86.70;;;;;;5050530;28;20041;-71
2022/06/30 08:17:52;;;;;;;9.35;5.68;;;26.60;86.80;;;;;;5050476;28;20367;-72
2022/06/30 08:20:18;;;;;;;12.27;6.47;;;27.00;84.50;;;;;;5050593;28;20079;-72
2022/06/30 08:22:44;;;;;;;9.77;5.60;;;27.40;83.70;;;;;;5050504;28;20167;-73
2022/06/30 08:25:10;;;;;;;13.15;7.10;;;27.60;82.60;;;;;;5050223;28;20234;-72
2022/06/30 08:27:36;;;;;;;11.75;5.95;;;27.80;81.70;;;;;;5050895;28;20577;-73
2022/06/30 08:30:01;;;;;;;11.48;6.65;;;28.00;81.90;;;;;;5050240;28;20037;-72
2022/06/30 08:32:27;;;;;;;11.38;6.20;;;28.50;81.50;;;;;;5049944;28;20116;-72
2022/06/30 08:34:53;;;;;;;11.07;6.10;;;29.30;78.20;;;;;;5049184;28;20135;-73
2022/06/30 08:37:18;;;;;;;7.93;5.90;;;29.80;77.60;;;;;;5049028;28;20135;-72
2022/06/30 08:42:32;;;;;;;12.35;7.40;;;31.00;73.10;;;;;;5050126;28;20362;-71
2022/06/30 08:47:42;;;;;;;10.40;6.32;;;32.60;68.40;;;;;;5049986;28;20064;-72
2022/06/30 08:50:09;;;;;;;8.73;5.93;;;32.90;68.00;;;;;;5049975;28;20060;-71
2022/06/30 08:52:44;;;;;;;9.85;5.57;;;33.40;67.60;;;;;;5049739;28;20053;-72
2022/06/30 08:55:11;;;;;;;9.00;6.50;;;33.80;65.70;;;;;;5049015;28;20045;-71
2022/06/30 08:57:38;;;;;;;;;;;33.70;64.00;;;;;;5050779;28;20573;-71
2022/06/30 09:00:04;;;;;;;7.95;5.53;;;33.90;63.60;;;;;;5049995;28;19992;-72
2022/06/30 09:02:30;;;;;;;7.13;5.55;;;34.30;64.20;;;;;;5049559;28;20041;-72
2022/06/30 09:04:56;;;;;;;7.90;5.85;;;33.80;62.00;;;;;;5049849;28;20056;-72
2022/06/30 09:07:21;;;;;;;11.80;6.05;;;33.60;62.30;;;;;;5049875;28;20025;-72
2022/06/30 09:09:47;;;;;;;9.10;6.63;;;33.50;62.70;;;;;;5050097;28;20082;-72
2022/06/30 09:12:15;;;;;;;8.57;6.60;;;33.60;61.50;;;;;;5049655;28;20086;-72
2022/06/30 09:14:42;;;;;;;8.18;6.10;;;33.70;61.90;;;;;;5049312;28;20044;-72
2022/06/30 09:17:11;;;;;;;8.80;5.88;;;33.90;61.50;;;;;;5049281;28;20082;-72
2022/06/30 09:19:58;;;;;;;16.50;6.47;;;34.10;60.80;;;;;;5049419;28;20615;-71
2022/06/30 09:22:35;;;;;;;6.63;5.90;;;33.70;61.20;;;;;;5049748;28;20113;-71
2022/06/30 09:25:05;;;;;;;;;;;33.60;61.50;;;;;;5050770;28;20036;-72
2022/06/30 09:27:35;;;;;;;6.15;5.00;;;33.40;61.30;;;;;;5049634;28;19935;-71
2022/06/30 09:30:09;;;;;;;6.47;5.80;;;33.20;62.20;;;;;;5049715;28;20048;-71
2022/06/30 09:32:45;;;;;;;7.55;5.20;;;32.40;62.70;;;;;;5049582;28;20454;-72
2022/06/30 09:35:12;;;;;;;7.45;5.57;;;32.60;63.40;;;;;;5049391;28;20044;-72
2022/06/30 09:37:38;;;;;;;8.93;6.07;;;32.20;63.10;;;;;;5049349;28;20029;-71
2022/06/30 09:40:06;;;;;;;7.68;5.72;;;32.20;63.70;;;;;;5048357;28;20281;-72
2022/06/30 09:42:58;;;;;;;6.10;4.97;;;32.00;63.80;;;;;;5050105;28;20124;-73
2022/06/30 09:45:40;;;;;;;7.68;6.25;;;31.70;64.40;;;;;;5047291;28;20120;-72
2022/06/30 09:48:09;;;;;;;9.38;7.40;;;31.50;64.80;;;;;;5049475;28;20125;-72
2022/06/30 09:50:35;;;;;;;15.82;6.22;;;31.20;65.40;;;;;;5049626;28;20375;-72
2022/06/30 09:53:15;;;;;;;8.98;5.57;;;31.40;65.90;;;;;;5048280;28;20071;-72
2022/06/30 09:55:43;;;;;;;7.28;6.13;;;31.00;66.40;;;;;;5049314;28;20489;-71
2022/06/30 09:58:11;;;;;;;5.65;5.10;;;31.20;66.80;;;;;;5048736;28;20045;-73
2022/06/30 10:00:58;;;;;;;7.45;5.82;;;31.20;66.50;;;;;;5049792;28;20078;-72
2022/06/30 10:03:24;;;;;;;7.35;6.38;;;31.00;67.00;;;;;;5049327;28;20091;-71
2022/06/30 10:06:06;;;;;;;12.32;8.73;;;31.20;67.50;;;;;;5049386;28;20033;-72
2022/06/30 10:08:32;;;;;;;7.43;5.68;;;31.10;67.70;;;;;;5049451;28;20091;-71
2022/06/30 10:10:59;;;;;;;7.75;5.65;;;31.00;66.50;;;;;;5049101;28;20033;-71
2022/06/30 10:13:25;;;;;;;9.63;6.05;;;30.90;67.70;;;;;;5049207;28;20128;-71
2022/06/30 10:15:55;;;;;;;7.55;5.70;;;31.00;67.90;;;;;;5049724;28;20078;-72
2022/06/30 10:18:26;;;;;;;12.40;6.78;;;31.20;67.50;;;;;;5049273;28;20057;-72
2022/06/30 10:20:53;;;;;;;8.57;6.30;;;31.20;67.80;;;;;;5049327;28;20021;-72
2022/06/30 10:23:19;;;;;;;10.30;6.07;;;31.20;67.70;;;;;;5049230;28;20025;-71
2022/06/30 10:25:47;;;;;;;11.53;6.20;;;31.20;67.90;;;;;;5049399;28;20037;-72
2022/06/30 10:28:17;;;;;;;7.45;5.82;;;31.40;67.70;;;;;;5048973;28;20106;-72
2022/06/30 10:30:52;;;;;;;8.15;6.05;;;31.50;67.20;;;;;;5050799;28;20013;-72
2022/06/30 10:34:02;;;;;;;11.02;6.57;;;31.40;67.20;;;;;;5051647;28;20454;-71
2022/06/30 10:36:43;;;;;;;9.80;5.80;;;31.40;66.70;;;;;;5036604;28;20029;-71
2022/06/30 10:39:37;;;;;;;11.05;5.78;;;31.20;67.10;;;;;;5052497;28;20079;-73
2022/06/30 10:42:03;;;;;;;7.03;5.63;;;31.00;67.70;;;;;;5052560;28;20606;-71
2022/06/30 10:44:31;;;;;;;8.30;5.95;;;30.90;67.80;;;;;;5052762;28;20509;-72
2022/06/30 10:46:57;;;;;;;10.88;6.28;;;31.00;68.40;;;;;;5051067;28;20490;-72
2022/06/30 10:49:27;;;;;;;26.83;16.00;;;31.00;68.00;;;;;;5052319;28;20717;-72
2022/06/30 10:51:57;;;;;;;18.23;12.82;;;30.80;68.40;;;;;;5052566;28;20021;-72
2022/06/30 10:54:30;;;;;;;11.32;8.02;;;31.00;68.30;;;;;;5052179;28;20104;-72
2022/06/30 10:56:57;;;;;;;7.65;5.90;;;31.00;67.50;;;;;;5052418;28;20101;-72
2022/06/30 10:59:29;;;;;;;7.03;6.15;;;31.00;68.20;;;;;;5051045;28;20036;-72
2022/06/30 11:02:15;;;;;;;8.95;6.30;;;30.90;68.80;;;;;;5051071;28;20041;-71
2022/06/30 11:04:43;;;;;;;11.50;6.03;;;31.10;68.10;;;;;;5052134;28;20040;-71
2022/06/30 11:07:14;;;;;;;6.32;5.68;;;31.00;68.00;;;;;;5051852;28;20419;-70
2022/06/30 11:09:49;;;;;;;9.02;5.70;;;30.90;68.10;;;;;;5051190;28;20017;-72
2022/06/30 11:12:23;;;;;;;7.93;5.85;;;31.10;68.10;;;;;;5051889;28;20048;-72
2022/06/30 11:14:53;;;;;;;8.38;5.75;;;31.30;67.50;;;;;;5051516;28;20033;-72
2022/06/30 11:17:21;;;;;;;10.20;5.95;;;31.40;66.80;;;;;;5051918;28;20026;-71
2022/06/30 11:19:59;;;;;;;18.10;13.88;;;31.40;67.10;;;;;;5052170;28;20021;-73
2022/06/30 11:22:25;;;;;;;10.55;6.25;;;31.20;67.10;;;;;;5051804;28;20166;-72
2022/06/30 11:24:52;;;;;;;8.60;5.55;;;31.30;67.30;;;;;;5052473;28;20021;-73
2022/06/30 11:27:21;;;;;;;11.68;6.55;;;31.10;66.70;;;;;;5050797;28;20109;-72
2022/06/30 11:29:49;;;;;;;8.27;6.03;;;31.10;67.00;;;;;;5050346;28;20076;-71
2022/06/30 11:32:15;;;;;;;;;;;31.10;66.50;;;;;;5052250;28;20037;-72
2022/06/30 11:34:41;;;;;;;9.35;5.75;;;31.00;65.90;;;;;;5050502;28;20215;-72
2022/06/30 11:37:07;;;;;;;7.18;5.05;;;30.90;66.20;;;;;;5051667;28;20524;-71
2022/06/30 11:39:33;;;;;;;9.18;5.85;;;31.00;65.90;;;;;;5052104;28;20060;-71
2022/06/30 11:42:06;;;;;;;8.70;4.95;;;30.90;65.70;;;;;;5055641;28;20483;-72
2022/06/30 11:44:34;;;;;;;13.73;5.28;;;30.90;65.60;;;;;;5051301;28;20455;-71
2022/06/30 11:47:00;;;;;;;7.03;5.15;;;30.80;65.60;;;;;;5051254;28;20028;-71
2022/06/30 11:49:37;;;;;;;11.10;5.90;;;30.80;66.10;;;;;;5051224;28;20093;-71
2022/06/30 11:52:10;;;;;;;6.77;5.77;;;31.00;65.90;;;;;;5051799;28;20046;-70
2022/06/30 11:54:36;;;;;;;9.90;6.07;;;30.90;65.90;;;;;;5051275;28;20052;-71
2022/06/30 11:57:02;;;;;;;9.27;6.30;;;30.80;65.80;;;;;;5051152;28;20175;-71
2022/06/30 11:59:28;;;;;;;7.97;5.72;;;30.70;66.00;;;;;;5051224;28;20112;-70
2022/06/30 12:02:05;;;;;;;10.02;5.70;;;30.80;66.10;;;;;;5050942;28;20036;-71
2022/06/30 12:04:32;;;;;;;10.40;6.15;;;30.80;65.10;;;;;;5050909;28;20479;-71
2022/06/30 12:07:03;;;;;;;9.07;5.55;;;30.80;65.50;;;;;;5051521;28;20044;-71
2022/06/30 12:09:30;;;;;;;9.98;6.57;;;30.80;65.20;;;;;;5050017;28;20052;-72
2022/06/30 12:11:58;;;;;;;8.48;5.55;;;30.90;64.80;;;;;;5050925;28;20116;-72
2022/06/30 12:14:25;;;;;;;9.20;5.38;;;30.90;65.10;;;;;;5050921;28;20041;-71
2022/06/30 12:16:57;;;;;;;9.65;5.70;;;31.00;64.90;;;;;;5050829;28;20122;-73
2022/06/30 12:19:25;;;;;;;9.02;5.95;;;31.00;64.50;;;;;;5050754;28;20056;-71
2022/06/30 12:21:53;;;;;;;7.22;5.63;;;31.00;63.80;;;;;;5051371;28;20013;-72
2022/06/30 12:24:21;;;;;;;6.90;5.00;;;31.00;63.90;;;;;;5050730;28;20025;-70
2022/06/30 12:26:55;;;;;;;8.48;5.10;;;30.90;63.50;;;;;;5050875;28;20381;-72
2022/06/30 12:29:23;;;;;;;12.68;6.00;;;30.80;63.60;;;;;;5050538;28;20031;-71
2022/06/30 12:31:57;;;;;;;10.65;5.25;;;30.90;63.50;;;;;;5050541;28;20028;-70
2022/06/30 12:34:24;;;;;;;6.22;5.20;;;30.80;63.70;;;;;;5050406;28;20044;-72
2022/06/30 12:36:50;;;;;;;7.88;6.18;;;30.80;63.80;;;;;;5050823;28;20025;-72
2022/06/30 12:39:16;;;;;;;8.88;6.03;;;30.80;64.80;;;;;;5050363;28;20044;-71
2022/06/30 12:41:43;;;;;;;16.05;7.38;;;30.80;65.10;;;;;;5050249;28;20029;-72
2022/06/30 12:44:10;;;;;;;7.93;6.07;;;30.90;65.50;;;;;;5050360;28;20037;-70
2022/06/30 12:46:41;;;;;;;11.07;6.72;;;30.80;64.60;;;;;;5050300;28;20041;-71
2022/06/30 12:49:20;;;;;;;8.93;6.35;;;30.70;64.90;;;;;;5050325;28;20455;-71
2022/06/30 12:51:46;;;;;;;10.73;6.90;;;30.60;65.20;;;;;;5050491;28;20029;-71
2022/06/30 12:54:16;;;;;;;9.57;5.80;;;30.70;65.00;;;;;;5048572;28;20110;-71
2022/06/30 12:56:50;;;;;;;8.60;6.03;;;30.80;63.90;;;;;;5050196;28;20037;-72
2022/06/30 12:59:17;;;;;;;10.52;6.00;;;30.50;63.80;;;;;;5049993;28;20068;-71
2022/06/30 13:01:45;;;;;;;5.95;5.15;;;30.50;64.00;;;;;;5050431;28;20052;-71
2022/06/30 13:04:26;;;;;;;6.95;5.85;;;30.50;64.20;;;;;;5049749;28;20031;-71
2022/06/30 13:06:53;;;;;;;12.77;5.85;;;30.70;64.50;;;;;;5050666;28;20091;-71